Time;durP1;ratioP1;P1;durP2;ratioP2;P2;SDS_P1;SDS_P2;PMS_P1;PMS_P2;Temp;Humidity;BMP_temperature;BMP_pressure;BME280_temperature;BME280_humidity;BME280_pressure;Samples;Min_cycle;Max_cycle;Signal;HPM_P1;HPM_P2
2021/05/19 00:02:00;;;;;;;3.47;1.58;;;;;;;11.75;100.00;100477.34;5033508;28;20030;-78
2021/05/19 00:04:25;;;;;;;4.60;1.85;;;;;;;11.34;100.00;100470.59;5031714;28;20442;-79
2021/05/19 00:06:51;;;;;;;3.30;1.70;;;;;;;11.64;100.00;100478.09;5033891;28;20025;-78
2021/05/19 00:09:16;;;;;;;4.53;1.25;;;;;;;11.77;100.00;100474.59;5039679;28;20031;-79
2021/05/19 00:11:46;;;;;;;2.45;1.40;;;;;;;12.04;100.00;100474.41;5033350;28;20056;-79
2021/05/19 00:14:13;;;;;;;2.97;1.40;;;;;;;12.19;100.00;100478.56;5021734;28;20072;-78
2021/05/19 00:16:39;;;;;;;5.85;1.65;;;;;;;12.20;100.00;100484.66;5013544;28;20037;-79
2021/05/19 00:19:05;;;;;;;3.47;1.52;;;;;;;12.08;100.00;100473.25;5022842;28;20025;-78
2021/05/19 00:21:30;;;;;;;4.97;1.77;;;;;;;11.85;100.00;100478.38;5033296;28;20026;-78
2021/05/19 00:23:56;;;;;;;6.70;1.90;;;;;;;11.60;100.00;100470.56;5024819;28;20112;-78
2021/05/19 00:26:22;;;;;;;6.50;1.95;;;;;;;11.64;100.00;100462.31;5013323;28;20034;-78
2021/05/19 00:28:51;;;;;;;3.42;1.70;;;;;;;11.62;100.00;100476.53;5019271;28;20462;-79
2021/05/19 00:31:19;;;;;;;9.85;2.22;;;;;;;11.59;100.00;100476.75;5028590;28;20032;-79
2021/05/19 00:33:45;;;;;;;4.60;2.10;;;;;;;11.66;100.00;100473.56;5012949;28;20128;-79
2021/05/19 00:36:10;;;;;;;3.53;1.40;;;;;;;11.43;100.00;100469.97;5015182;28;20109;-78
2021/05/19 00:38:35;;;;;;;5.95;1.40;;;;;;;11.58;100.00;100467.19;5032955;28;20021;-78
2021/05/19 00:41:01;;;;;;;5.78;1.80;;;;;;;11.64;100.00;100467.59;5031779;28;20021;-79
2021/05/19 00:43:27;;;;;;;9.02;3.15;;;;;;;11.67;100.00;100463.88;5013186;28;20026;-78
2021/05/19 00:45:53;;;;;;;4.60;2.28;;;;;;;11.41;100.00;100466.56;5021649;28;20074;-78
2021/05/19 00:48:18;;;;;;;4.15;2.30;;;;;;;11.40;100.00;100470.16;5013564;28;20030;-79
2021/05/19 00:50:44;;;;;;;4.75;2.75;;;;;;;11.23;100.00;100463.44;5036696;28;20028;-79
2021/05/19 00:53:09;;;;;;;9.52;2.45;;;;;;;11.51;100.00;100461.50;5029518;28;20034;-78
2021/05/19 00:55:35;;;;;;;7.20;3.10;;;;;;;11.39;100.00;100465.84;5026533;28;20073;-79
2021/05/19 00:58:01;;;;;;;3.78;2.35;;;;;;;11.55;100.00;100462.13;5024800;28;20475;-78
2021/05/19 01:00:27;;;;;;;4.63;2.30;;;;;;;11.52;100.00;100453.50;5032491;28;20494;-79
2021/05/19 01:02:53;;;;;;;5.80;2.65;;;;;;;11.55;100.00;100468.22;5014468;28;20030;-79
2021/05/19 01:05:27;;;;;;;4.60;2.45;;;;;;;11.74;100.00;100466.94;5012680;28;20030;-79
2021/05/19 01:10:37;;;;;;;7.53;2.67;;;;;;;11.67;100.00;100466.50;5012993;28;20131;-79
2021/05/19 01:13:05;;;;;;;6.43;2.30;;;;;;;11.76;100.00;100470.28;5014326;28;20069;-79
2021/05/19 01:15:30;;;;;;;6.20;2.67;;;;;;;11.60;100.00;100467.91;5032566;28;20022;-79
2021/05/19 01:17:56;;;;;;;6.65;2.88;;;;;;;11.52;100.00;100463.19;5026707;28;20032;-79
2021/05/19 01:20:22;;;;;;;4.75;2.78;;;;;;;11.51;100.00;100467.63;5012641;28;20033;-78
2021/05/19 01:22:47;;;;;;;3.30;2.60;;;;;;;11.61;100.00;100459.94;5012915;28;20022;-78
2021/05/19 01:25:13;;;;;;;4.63;2.42;;;;;;;11.60;100.00;100455.59;5032212;28;20025;-78
2021/05/19 01:27:38;;;;;;;4.97;2.45;;;;;;;11.73;100.00;100460.84;5032346;28;20029;-78
2021/05/19 01:30:08;;;;;;;4.38;2.75;;;;;;;11.69;100.00;100462.00;5032748;28;20032;-79
2021/05/19 01:32:35;;;;;;;5.95;2.15;;;;;;;11.52;100.00;100458.78;5032561;28;20033;-78
2021/05/19 01:35:00;;;;;;;4.50;2.08;;;;;;;11.57;100.00;100457.59;5032305;28;20108;-78
2021/05/19 01:37:26;;;;;;;4.45;2.10;;;;;;;11.57;100.00;100471.63;5032204;28;20018;-78
2021/05/19 01:39:52;;;;;;;2.58;1.80;;;;;;;11.42;100.00;100470.91;5030364;28;20502;-78
2021/05/19 01:42:18;;;;;;;7.88;2.10;;;;;;;11.49;100.00;100466.91;5030234;28;20022;-78
2021/05/19 01:44:43;;;;;;;5.57;2.08;;;;;;;11.24;100.00;100459.06;5032053;28;20033;-78
2021/05/19 01:47:09;;;;;;;4.13;2.22;;;;;;;11.42;100.00;100465.63;5020539;28;20030;-78
2021/05/19 01:49:40;;;;;;;3.60;2.08;;;;;;;11.58;100.00;100460.13;5013523;28;20017;-78
2021/05/19 01:52:07;;;;;;;5.37;2.07;;;;;;;11.59;100.00;100463.59;5012203;28;20034;-78
2021/05/19 01:54:33;;;;;;;7.55;4.25;;;;;;;11.47;100.00;100458.28;5016034;28;20278;-78
2021/05/19 01:56:59;;;;;;;7.93;3.15;;;;;;;11.36;100.00;100465.25;5011895;28;20026;-78
2021/05/19 01:59:25;;;;;;;5.65;2.80;;;;;;;11.20;100.00;100453.16;5014847;28;20519;-78
2021/05/19 02:01:51;;;;;;;5.55;2.70;;;;;;;11.31;100.00;100457.66;5031991;28;20100;-79
2021/05/19 02:04:18;;;;;;;5.35;2.60;;;;;;;11.47;100.00;100450.38;5026746;28;20045;-78
2021/05/19 02:06:49;;;;;;;3.42;2.60;;;;;;;11.56;100.00;100463.84;5012551;28;20360;-78
2021/05/19 02:09:16;;;;;;;2.70;2.40;;;;;;;11.58;100.00;100460.13;5015114;28;20022;-78
2021/05/19 02:11:42;;;;;;;7.70;2.85;;;;;;;11.28;100.00;100452.63;5031969;28;20479;-78
2021/05/19 02:14:08;;;;;;;8.27;3.88;;;;;;;11.48;100.00;100462.56;5030718;28;20087;-78
2021/05/19 02:16:33;;;;;;;3.45;2.30;;;;;;;11.12;100.00;100458.13;5014565;28;20026;-78
2021/05/19 02:18:59;;;;;;;3.67;2.50;;;;;;;11.21;100.00;100456.63;5018715;28;20501;-78
2021/05/19 02:21:24;;;;;;;3.60;2.90;;;;;;;11.00;100.00;100467.69;5031533;28;20025;-79
2021/05/19 02:23:50;;;;;;;4.05;3.05;;;;;;;11.33;100.00;100474.16;5031250;28;20033;-79
2021/05/19 02:26:15;;;;;;;3.58;2.53;;;;;;;11.46;100.00;100458.38;5012028;28;20113;-79
2021/05/19 02:28:41;;;;;;;5.10;2.63;;;;;;;11.48;100.00;100459.94;5028338;28;20099;-79
2021/05/19 02:31:06;;;;;;;7.50;3.58;;;;;;;11.36;100.00;100463.44;5031628;28;20488;-79
2021/05/19 02:33:32;;;;;;;5.40;2.78;;;;;;;11.50;100.00;100458.03;5029544;28;20082;-79
2021/05/19 02:35:57;;;;;;;2.92;2.38;;;;;;;11.60;100.00;100457.41;5031573;28;20095;-79
2021/05/19 02:38:23;;;;;;;5.15;2.83;;;;;;;11.61;100.00;100453.81;5021423;28;20035;-79
2021/05/19 02:40:48;;;;;;;5.60;2.95;;;;;;;11.51;100.00;100459.75;5051391;28;20383;-79
2021/05/19 02:43:14;;;;;;;10.43;2.97;;;;;;;11.50;100.00;100459.84;5035971;28;20033;-79
2021/05/19 02:45:40;;;;;;;5.40;2.35;;;;;;;11.58;100.00;100460.13;5031266;28;20502;-79
2021/05/19 02:48:06;;;;;;;5.65;2.95;;;;;;;11.66;100.00;100467.47;5018775;28;20034;-79
2021/05/19 02:50:31;;;;;;;7.13;2.50;;;;;;;11.51;100.00;100474.66;5011680;28;20024;-79
2021/05/19 02:52:57;;;;;;;4.40;2.40;;;;;;;11.54;100.00;100476.25;5021352;28;20438;-79
2021/05/19 02:55:22;;;;;;;7.63;2.90;;;;;;;11.60;100.00;100475.81;5031142;28;20026;-79
2021/05/19 02:57:48;;;;;;;6.57;3.10;;;;;;;11.60;100.00;100476.63;5029523;28;20025;-79
2021/05/19 03:00:14;;;;;;;6.35;2.80;;;;;;;11.59;100.00;100482.88;5032899;28;20079;-79
2021/05/19 03:02:39;;;;;;;4.43;3.28;;;;;;;11.54;100.00;100484.13;5027236;28;20033;-79
2021/05/19 03:05:06;;;;;;;4.72;3.30;;;;;;;11.53;100.00;100478.00;5014857;28;20560;-79
2021/05/19 03:07:31;;;;;;;6.80;3.47;;;;;;;11.60;100.00;100476.63;5019642;28;20025;-79
2021/05/19 03:09:57;;;;;;;8.15;3.90;;;;;;;11.52;100.00;100479.81;5033246;28;20360;-79
2021/05/19 03:12:22;;;;;;;6.45;3.72;;;;;;;11.59;100.00;100482.00;5029094;28;20088;-79
2021/05/19 03:14:47;;;;;;;9.35;4.75;;;;;;;11.65;100.00;100490.31;5014791;28;20088;-79
2021/05/19 03:17:13;;;;;;;7.68;4.07;;;;;;;11.68;100.00;100490.09;5018484;28;20037;-79
2021/05/19 03:19:38;;;;;;;7.60;4.75;;;;;;;11.68;100.00;100490.09;5014870;28;20602;-79
2021/05/19 03:22:04;;;;;;;7.63;4.72;;;;;;;11.69;100.00;100480.44;5014911;28;20026;-79
2021/05/19 03:24:29;;;;;;;10.43;5.32;;;;;;;11.72;100.00;100493.34;5014475;28;20033;-79
2021/05/19 03:26:54;;;;;;;11.40;5.82;;;;;;;11.71;100.00;100489.03;5031982;28;20386;-79
2021/05/19 03:29:20;;;;;;;11.98;5.72;;;;;;;11.80;100.00;100491.00;5034482;28;20482;-79
2021/05/19 03:31:45;;;;;;;10.45;5.57;;;;;;;11.59;100.00;100489.91;5017886;28;20032;-79
2021/05/19 03:34:11;;;;;;;9.40;5.75;;;;;;;11.57;100.00;100497.06;5014447;28;20538;-79
2021/05/19 03:36:36;;;;;;;9.85;5.53;;;;;;;11.43;100.00;100496.25;5028066;28;20104;-79
2021/05/19 03:39:04;;;;;;;9.45;5.38;;;;;;;11.52;100.00;100502.66;5042606;28;20053;-79
2021/05/19 03:41:29;;;;;;;8.02;5.72;;;;;;;11.54;100.00;100506.00;5040254;28;20036;-79
2021/05/19 03:43:54;;;;;;;8.95;6.18;;;;;;;11.54;100.00;100513.91;5033845;28;20029;-79
2021/05/19 03:46:20;;;;;;;12.10;6.15;;;;;;;11.46;100.00;100505.72;5023025;28;20037;-79
2021/05/19 03:48:45;;;;;;;10.98;5.93;;;;;;;11.54;100.00;100513.06;5014262;28;20053;-79
2021/05/19 03:51:11;;;;;;;10.07;6.20;;;;;;;11.62;100.00;100508.09;5014996;28;20476;-79
2021/05/19 03:53:36;;;;;;;9.85;6.28;;;;;;;11.74;100.00;100515.13;5012405;28;20060;-79
2021/05/19 03:56:03;;;;;;;7.28;5.43;;;;;;;11.93;100.00;100512.06;5020919;28;20105;-79
2021/05/19 03:58:28;;;;;;;11.35;6.65;;;;;;;11.87;100.00;100515.09;5033862;28;20025;-79
2021/05/19 04:00:54;;;;;;;12.13;6.40;;;;;;;11.87;100.00;100521.19;5026824;28;20365;-79
2021/05/19 04:03:19;;;;;;;11.98;6.00;;;;;;;11.82;100.00;100517.19;5014073;28;20040;-79
2021/05/19 04:05:45;;;;;;;11.75;5.47;;;;;;;11.60;100.00;100520.50;5018393;28;20024;-79
2021/05/19 04:08:11;;;;;;;10.63;5.57;;;;;;;11.63;100.00;100525.53;5033905;28;20021;-79
2021/05/19 04:10:36;;;;;;;7.88;5.32;;;;;;;11.67;100.00;100525.25;5030090;28;20534;-79
2021/05/19 04:13:05;;;;;;;8.52;5.10;;;;;;;11.54;100.00;100532.31;5013988;28;20121;-79
2021/05/19 04:15:35;;;;;;;10.00;4.78;;;;;;;11.63;100.00;100536.06;5015067;28;20021;-79
2021/05/19 04:18:01;;;;;;;7.43;4.78;;;;;;;11.52;100.00;100542.91;5032968;28;20112;-79
2021/05/19 04:20:27;;;;;;;7.88;4.40;;;;;;;11.47;100.00;100539.78;5012403;28;20117;-79
2021/05/19 04:22:53;;;;;;;6.93;4.53;;;;;;;11.49;100.00;100543.16;5012258;28;20091;-79
2021/05/19 04:25:18;;;;;;;9.00;3.95;;;;;;;11.50;100.00;100544.81;5029620;28;20036;-78
2021/05/19 04:27:45;;;;;;;8.43;4.10;;;;;;;11.45;100.00;100543.44;5033353;28;20033;-78
2021/05/19 04:30:12;;;;;;;6.85;3.75;;;;;;;11.27;100.00;100550.81;5017432;28;20026;-79
2021/05/19 04:32:37;;;;;;;9.60;3.92;;;;;;;11.15;100.00;100549.88;5013472;28;20062;-79
2021/05/19 04:35:05;;;;;;;6.70;3.42;;;;;;;11.37;100.00;100554.50;5027010;28;20068;-79
2021/05/19 04:37:31;;;;;;;7.70;3.47;;;;;;;11.44;100.00;100554.94;5033126;28;20387;-79
2021/05/19 04:39:56;;;;;;;6.57;3.17;;;;;;;11.51;100.00;100554.41;5034782;28;20029;-79
2021/05/19 04:42:22;;;;;;;7.85;3.47;;;;;;;11.48;100.00;100553.78;5033232;28;20463;-79
2021/05/19 04:44:47;;;;;;;6.60;3.40;;;;;;;11.47;100.00;100555.56;5031400;28;20053;-79
2021/05/19 04:47:12;;;;;;;5.60;2.85;;;;;;;11.37;100.00;100561.56;5033012;28;20177;-79
2021/05/19 04:49:38;;;;;;;5.60;2.97;;;;;;;11.46;100.00;100567.00;5023179;28;20064;-79
2021/05/19 04:52:03;;;;;;;8.70;2.92;;;;;;;11.35;100.00;100566.91;5013030;28;20049;-79
2021/05/19 04:54:29;;;;;;;5.78;3.00;;;;;;;11.15;100.00;100572.69;5020249;28;20041;-79
2021/05/19 04:56:54;;;;;;;6.40;2.63;;;;;;;11.15;100.00;100570.91;5032756;28;20018;-79
2021/05/19 04:59:19;;;;;;;4.50;2.40;;;;;;;11.22;100.00;100576.59;5026651;28;20052;-79
2021/05/19 05:01:45;;;;;;;3.92;2.20;;;;;;;11.21;100.00;100581.00;5012848;28;20468;-79
2021/05/19 05:04:10;;;;;;;4.10;2.22;;;;;;;11.23;100.00;100586.16;5016371;28;20423;-79
2021/05/19 05:06:36;;;;;;;4.55;2.15;;;;;;;11.21;100.00;100588.03;5031247;28;20033;-79
2021/05/19 05:09:01;;;;;;;3.22;2.05;;;;;;;11.15;100.00;100593.72;5030379;28;20025;-80
2021/05/19 05:11:26;;;;;;;3.55;2.47;;;;;;;11.19;100.00;100596.03;5032640;28;20032;-79
2021/05/19 05:13:52;;;;;;;5.72;2.50;;;;;;;11.21;100.00;100594.13;5031643;28;20483;-79
2021/05/19 05:16:17;;;;;;;5.47;2.47;;;;;;;11.21;100.00;100599.38;5014106;28;20036;-79
2021/05/19 05:18:43;;;;;;;5.32;2.60;;;;;;;11.20;100.00;100595.09;5012452;28;20605;-85
2021/05/19 05:21:09;;;;;;;3.92;2.75;;;;;;;11.09;100.00;100603.69;5012233;28;21005;-85
2021/05/19 05:23:35;;;;;;;5.05;2.50;;;;;;;11.17;100.00;100615.47;5015730;28;20029;-80
2021/05/19 05:26:02;;;;;;;5.65;2.83;;;;;;;11.28;100.00;100612.97;5029402;28;20429;-78
2021/05/19 05:28:27;;;;;;;7.22;3.28;;;;;;;11.08;100.00;100617.78;5025221;28;20119;-80
2021/05/19 05:30:54;;;;;;;4.80;2.72;;;;;;;11.14;100.00;100616.53;5012508;28;20108;-80
2021/05/19 05:33:20;;;;;;;6.43;3.40;;;;;;;11.23;100.00;100621.16;5027403;28;20029;-80
2021/05/19 05:35:45;;;;;;;5.72;2.95;;;;;;;11.30;100.00;100621.59;5030422;28;20145;-80
2021/05/19 05:38:11;;;;;;;3.60;2.47;;;;;;;11.38;100.00;100629.81;5020169;28;20702;-80
2021/05/19 05:40:36;;;;;;;3.97;2.75;;;;;;;11.46;100.00;100631.91;5017968;28;20030;-80
2021/05/19 05:43:02;;;;;;;7.55;3.38;;;;;;;11.48;100.00;100638.75;5012386;28;20061;-80
2021/05/19 05:45:28;;;;;;;8.32;2.80;;;;;;;11.48;100.00;100632.66;5012452;28;20057;-80
2021/05/19 05:47:54;;;;;;;8.65;3.22;;;;;;;11.50;100.00;100649.16;5014746;28;20022;-79
2021/05/19 05:50:20;;;;;;;6.82;2.67;;;;;;;11.55;100.00;100644.41;5016624;28;20026;-79
2021/05/19 05:52:45;;;;;;;6.32;2.78;;;;;;;11.37;100.00;100643.03;5012401;28;20586;-86
2021/05/19 05:55:11;;;;;;;4.03;2.58;;;;;;;11.58;100.00;100651.28;5011245;28;20049;-80
2021/05/19 05:57:37;;;;;;;6.07;2.72;;;;;;;11.78;100.00;100660.44;5021066;28;20356;-80
2021/05/19 06:00:05;;;;;;;5.97;2.65;;;;;;;11.92;100.00;100657.72;5031653;28;20084;-80
2021/05/19 06:02:30;;;;;;;4.47;2.80;;;;;;;12.02;100.00;100656.09;5024086;28;20506;-80
2021/05/19 06:04:56;;;;;;;4.97;2.38;;;;;;;12.23;100.00;100652.94;5012157;28;20034;-80
2021/05/19 06:07:21;;;;;;;3.35;2.40;;;;;;;12.27;100.00;100652.59;5017301;28;20483;-80
2021/05/19 06:09:51;;;;;;;4.05;2.17;;;;;;;12.44;100.00;100653.16;5031639;28;20377;-80
2021/05/19 06:12:17;;;;;;;5.78;1.85;;;;;;;12.63;100.00;100656.16;5027199;28;20041;-80
2021/05/19 06:14:42;;;;;;;2.20;2.00;;;;;;;12.61;100.00;100662.50;5016457;28;20026;-80
2021/05/19 06:17:10;;;;;;;1.95;1.38;;;;;;;12.58;100.00;100663.56;5029048;28;20038;-80
2021/05/19 06:19:35;;;;;;;3.17;1.77;;;;;;;12.57;100.00;100661.03;5011977;28;20310;-80
2021/05/19 06:22:01;;;;;;;4.72;1.75;;;;;;;12.66;100.00;100663.84;5012917;28;20210;-79
2021/05/19 06:24:27;;;;;;;5.63;1.83;;;;;;;13.04;100.00;100675.19;5012104;28;20065;-80
2021/05/19 06:26:52;;;;;;;3.78;1.67;;;;;;;13.49;100.00;100675.34;5011755;28;20030;-79
2021/05/19 06:29:17;;;;;;;2.35;1.80;;;;;;;13.59;99.45;100673.69;5023977;28;20037;-79
2021/05/19 06:31:43;;;;;;;1.52;1.40;;;;;;;13.84;98.64;100688.50;5011767;28;20100;-78
2021/05/19 06:34:08;;;;;;;2.58;1.20;;;;;;;13.81;96.99;100693.16;5011624;28;20030;-81
2021/05/19 06:36:33;;;;;;;2.03;1.33;;;;;;;14.24;96.48;100693.28;5015709;28;20029;-80
2021/05/19 06:38:59;;;;;;;5.25;1.25;;;;;;;14.77;93.93;100700.59;5031852;28;20029;-79
2021/05/19 06:41:24;;;;;;;2.67;1.17;;;;;;;15.27;91.69;100700.88;5055551;28;20382;-80
2021/05/19 06:43:49;;;;;;;2.03;1.17;;;;;;;15.46;87.56;100701.97;5055663;28;20064;-80
2021/05/19 06:46:15;;;;;;;5.05;1.00;;;;;;;15.74;85.40;100705.81;5055455;28;20381;-80
2021/05/19 06:48:40;;;;;;;2.65;0.90;;;;;;;16.73;84.21;100711.34;5055239;28;20083;-80
2021/05/19 06:51:06;;;;;;;2.05;0.80;;;;;;;17.01;81.89;100711.56;5023066;28;20061;-80
2021/05/19 06:53:31;;;;;;;2.85;0.73;;;;;;;17.60;78.29;100712.38;5018549;28;20048;-80
2021/05/19 06:55:57;;;;;;;2.72;0.90;;;;;;;17.72;75.81;100713.88;5024402;28;20471;-78
2021/05/19 06:58:23;;;;;;;1.48;0.70;;;;;;;17.48;74.38;100719.66;5016462;28;20117;-78
2021/05/19 07:00:48;;;;;;;4.60;0.85;;;;;;;18.37;71.40;100726.44;5017850;28;20022;-78
2021/05/19 07:03:14;;;;;;;3.05;0.73;;;;;;;18.73;69.20;100730.00;5027408;28;20541;-80
2021/05/19 07:05:40;;;;;;;1.85;0.80;;;;;;;19.11;69.53;100729.94;5032914;28;20026;-80
2021/05/19 07:08:06;;;;;;;2.13;0.77;;;;;;;19.58;66.03;100735.00;5019777;28;20387;-80
2021/05/19 07:10:32;;;;;;;2.00;0.75;;;;;;;19.65;64.02;100725.41;5020656;28;20383;-88
2021/05/19 07:15:31;;;;;;;2.67;0.82;;;;;;;20.59;61.84;100732.59;5059620;28;20720;-76
2021/05/19 07:17:56;;;;;;;1.88;0.68;;;;;;;21.05;59.55;100739.38;5048973;28;20033;-77
2021/05/19 07:20:21;;;;;;;2.92;0.60;;;;;;;21.06;56.85;100733.88;5049003;28;20087;-77
2021/05/19 07:22:47;;;;;;;3.78;0.57;;;;;;;21.42;56.85;100733.56;5048596;28;20033;-77
2021/05/19 07:25:12;;;;;;;2.10;0.43;;;;;;;22.62;53.57;100740.88;5048989;28;20029;-77
2021/05/19 07:27:38;;;;;;;1.58;0.60;;;;;;;23.16;52.61;100738.22;5048256;28;20036;-77
2021/05/19 07:30:04;;;;;;;2.55;0.50;;;;;;;22.85;49.79;100740.88;5047971;28;20087;-77
2021/05/19 07:32:29;;;;;;;3.60;0.85;;;;;;;22.53;50.63;100743.59;5048310;28;20029;-77
2021/05/19 07:34:55;;;;;;;2.15;0.57;;;;;;;22.97;50.13;100756.38;5047069;28;20103;-76
2021/05/19 07:37:20;;;;;;;0.98;0.40;;;;;;;23.02;48.70;100752.34;5048027;28;20108;-76
2021/05/19 07:39:46;;;;;;;2.67;0.35;;;;;;;23.99;47.22;100757.94;5051371;28;20116;-77
2021/05/19 07:42:18;;;;;;;2.75;0.70;;;;;;;24.43;47.87;100750.94;5048394;28;20033;-77
2021/05/19 07:44:45;;;;;;;1.92;0.38;;;;;;;23.91;45.75;100750.00;5048100;28;20112;-84
2021/05/19 07:47:11;;;;;;;2.30;0.40;;;;;;;22.64;49.33;100754.91;5048066;28;20025;-79
2021/05/19 07:49:37;;;;;;;1.67;0.43;;;;;;;22.46;50.16;100758.66;5048480;28;20097;-86
2021/05/19 07:52:03;;;;;;;1.15;0.30;;;;;;;24.17;47.33;100754.06;5047485;28;20072;-83
2021/05/19 07:54:30;;;;;;;2.40;0.35;;;;;;;23.41;46.75;100757.63;5048948;28;20040;-83
2021/05/19 07:57:39;;;;;;;3.15;0.40;;;;;;;23.36;46.69;100752.81;5048622;28;20071;-87
2021/05/19 07:59:54;;;;;;;2.70;0.57;;;;;;;23.56;47.13;100760.34;5029572;28;20049;-83
2021/05/19 08:02:19;;;;;;;1.42;0.40;;;;;;;22.82;48.78;100763.50;5038673;28;20445;-83
2021/05/19 08:04:45;;;;;;;1.25;0.50;;;;;;;22.91;48.91;100767.81;5048016;28;20406;-83
2021/05/19 08:07:10;;;;;;;1.58;0.40;;;;;;;22.49;50.26;100763.69;5045022;28;20537;-86
2021/05/19 08:09:35;;;;;;;3.10;0.45;;;;;;;23.44;47.72;100764.44;5037876;28;20382;-73
2021/05/19 08:12:01;;;;;;;347.73;21.00;;;;;;;23.80;47.93;100766.53;5048187;28;20060;-73
2021/05/19 08:14:29;;;;;;;12.77;1.10;;;;;;;24.53;46.06;100768.44;5047647;28;20029;-73
2021/05/19 08:16:55;;;;;;;10.40;0.63;;;;;;;24.15;44.69;100771.19;5048002;28;20478;-73
2021/05/19 08:19:21;;;;;;;27.35;2.42;;;;;;;24.35;43.91;100765.28;5047738;28;20037;-76
2021/05/19 08:21:46;;;;;;;7.13;0.73;;;;;;;23.73;45.70;100771.75;5046991;28;20044;-73
2021/05/19 08:24:11;;;;;;;0.93;0.35;;;;;;;23.46;45.06;100771.31;5047897;28;20029;-73
2021/05/19 08:26:37;;;;;;;1.52;0.43;;;;;;;22.95;46.29;100779.00;5035144;28;20467;-73
2021/05/19 08:29:04;;;;;;;1.58;0.57;;;;;;;22.84;48.69;100776.72;5034377;28;20030;-73
2021/05/19 08:31:29;;;;;;;1.80;0.55;;;;;;;21.99;49.65;100787.00;5034461;28;20037;-73
2021/05/19 08:33:56;;;;;;;2.53;0.68;;;;;;;21.28;50.79;100783.13;5033747;28;20029;-73
2021/05/19 08:36:23;;;;;;;2.08;0.47;;;;;;;21.29;52.93;100787.50;5034002;28;20084;-73
2021/05/19 08:38:49;;;;;;;4.93;0.50;;;;;;;20.37;55.94;100786.50;5037910;28;20025;-73
2021/05/19 08:41:14;;;;;;;4.75;0.50;;;;;;;20.01;56.80;100789.28;5034386;28;20537;-72
2021/05/19 08:43:40;;;;;;;2.65;0.52;;;;;;;19.71;59.19;100788.75;5034283;28;20034;-73
2021/05/19 08:46:06;;;;;;;1.23;0.60;;;;;;;19.12;60.64;100798.16;5033920;28;20029;-73
2021/05/19 08:48:32;;;;;;;1.60;0.57;;;;;;;18.97;63.05;100793.31;5034175;28;20028;-72
2021/05/19 08:50:58;;;;;;;2.25;0.60;;;;;;;18.73;63.32;100787.69;5033393;28;20025;-73
2021/05/19 08:53:26;;;;;;;2.25;0.77;;;;;;;18.46;63.85;100792.00;5033643;28;20451;-76
2021/05/19 08:55:51;;;;;;;1.30;0.55;;;;;;;18.12;66.13;100802.34;5034101;28;20033;-72
2021/05/19 08:58:17;;;;;;;2.10;0.50;;;;;;;17.88;67.31;100805.47;5019823;28;20494;-72
2021/05/19 09:00:42;;;;;;;2.47;0.63;;;;;;;17.82;67.12;100812.97;5014149;28;20053;-72
2021/05/19 09:03:18;;;;;;;1.80;0.50;;;;;;;17.63;70.82;100813.84;5030399;28;20059;-72
2021/05/19 09:05:48;;;;;;;3.45;0.50;;;;;;;18.08;69.07;100809.75;5033179;28;20030;-75
2021/05/19 09:08:16;;;;;;;1.60;0.60;;;;;;;19.49;65.08;100819.31;5033466;28;20052;-72
2021/05/19 09:10:58;;;;;;;2.58;0.50;;;;;;;19.98;60.26;100813.56;5033510;28;20100;-72
2021/05/19 09:13:37;;;;;;;5.20;0.80;;;;;;;20.33;59.49;100817.13;5033450;28;20041;-72
2021/05/19 09:16:04;;;;;;;16.20;0.90;;;;;;;21.62;58.07;100814.25;5033613;28;20028;-74
2021/05/19 09:18:44;;;;;;;2.38;0.77;;;;;;;21.96;52.05;100821.28;5033935;28;20029;-73
2021/05/19 09:21:10;;;;;;;2.30;0.55;;;;;;;22.17;50.04;100824.22;5033744;28;20036;-72
2021/05/19 15:21:09;;;;;;;8.13;1.05;;;;;;;18.24;56.86;100982.75;6240302;22;883482;-86
2021/05/19 15:23:34;;;;;;;8.45;1.25;;;;;;;18.14;55.61;100975.78;6337121;22;20428;-87
2021/05/19 15:26:00;;;;;;;6.57;1.40;;;;;;;18.02;58.11;100975.06;6335977;22;19998;-87
2021/05/19 15:28:25;;;;;;;6.68;1.20;;;;;;;18.01;58.37;100982.19;6337122;22;19999;-87
2021/05/19 15:30:56;;;;;;;11.68;1.10;;;;;;;17.70;56.98;100994.69;6337568;22;20006;-88
2021/05/19 15:33:25;;;;;;;7.45;1.27;;;;;;;18.07;56.11;100990.59;6337794;22;20077;-88
2021/05/19 15:35:51;;;;;;;7.03;1.50;;;;;;;17.87;56.52;101001.22;6337563;22;20309;-86
2021/05/19 15:38:18;;;;;;;6.22;1.48;;;;;;;17.70;55.52;101002.66;6338002;22;20507;-87
2021/05/19 15:40:44;;;;;;;6.72;1.10;;;;;;;18.00;57.09;101001.75;6338006;22;20337;-87
2021/05/19 15:43:11;;;;;;;5.63;1.25;;;;;;;17.86;54.71;101004.00;6337734;22;20241;-87
2021/05/19 15:45:37;;;;;;;3.08;1.20;;;;;;;17.37;57.53;101007.31;6337668;22;20005;-87
2021/05/19 15:48:03;;;;;;;9.23;1.42;;;;;;;17.22;57.48;101011.31;6338022;22;19999;-90
2021/05/19 15:50:30;;;;;;;7.05;0.93;;;;;;;17.36;57.62;101005.63;6335908;22;19995;-87
2021/05/19 15:52:57;;;;;;;6.38;1.40;;;;;;;17.39;56.55;101000.03;6337760;22;20007;-90
2021/05/19 15:55:22;;;;;;;15.63;1.75;;;;;;;17.37;55.86;101004.66;6337285;22;19995;-89
2021/05/19 15:57:47;;;;;;;5.40;1.70;;;;;;;17.42;56.41;101014.88;6337147;22;20022;-91
2021/05/19 16:00:13;;;;;;;8.82;1.50;;;;;;;17.36;56.63;101018.06;6337575;22;20081;-90
2021/05/19 16:02:39;;;;;;;7.68;1.10;;;;;;;17.25;58.49;101014.50;6337752;22;20412;-93
2021/05/19 16:05:07;;;;;;;8.50;1.00;;;;;;;17.21;58.58;101021.06;6337706;22;20033;-91
2021/05/19 16:07:32;;;;;;;5.70;1.20;;;;;;;17.18;58.18;101025.78;6337764;22;20334;-91
2021/05/19 16:09:58;;;;;;;6.55;2.72;;;;;;;17.33;58.18;101026.28;6337467;22;20467;-91
2021/05/19 16:12:23;;;;;;;6.28;1.20;;;;;;;17.36;57.56;101029.53;6336945;22;20007;-92
2021/05/19 16:14:48;;;;;;;3.60;1.13;;;;;;;17.30;57.21;101032.72;6337741;22;20439;-92
2021/05/19 16:17:14;;;;;;;5.75;1.30;;;;;;;17.42;59.33;101028.16;6337766;22;20377;-90
2021/05/19 16:19:40;;;;;;;6.40;0.90;;;;;;;17.14;58.11;101024.38;6337718;22;20010;-92
2021/05/19 16:22:06;;;;;;;6.60;1.00;;;;;;;17.36;59.21;101029.53;6337357;22;20010;-91
2021/05/19 16:24:32;;;;;;;6.97;1.30;;;;;;;17.37;58.91;101023.22;6339756;22;20037;-88
2021/05/19 16:26:57;;;;;;;10.07;1.30;;;;;;;17.17;59.10;101034.72;6336983;22;20003;-93
2021/05/19 16:35:59;;;;;;;6.90;2.05;;;;;;;16.37;58.91;101036.97;6337263;22;20011;-91
2021/05/19 16:38:24;;;;;;;5.75;1.05;;;;;;;16.73;60.38;101031.38;6337254;22;20048;-91
2021/05/19 16:40:50;;;;;;;6.38;1.30;;;;;;;16.91;59.59;101029.84;6336802;22;19999;-92
2021/05/19 16:43:15;;;;;;;4.30;1.02;;;;;;;16.88;57.90;101024.78;6337178;22;20329;-92
2021/05/19 16:45:41;;;;;;;6.55;0.90;;;;;;;16.82;59.59;101033.25;6335841;22;20002;-92
2021/05/19 16:48:09;;;;;;;5.30;0.63;;;;;;;16.67;60.36;101030.06;6338057;22;19999;-95
2021/05/19 16:50:36;;;;;;;7.40;1.38;;;;;;;16.15;60.62;101037.88;6338072;22;20007;-95
2021/05/19 16:53:03;;;;;;;3.15;1.08;;;;;;;16.13;62.23;101045.09;6340470;22;20076;-93
2021/05/19 16:55:29;;;;;;;7.85;0.90;;;;;;;16.04;61.24;101040.56;6341297;22;20021;-91
2021/05/19 16:57:55;;;;;;;9.10;2.35;;;;;;;16.31;59.82;101036.59;6336570;22;20030;-91
2021/05/19 17:00:21;;;;;;;2.85;0.80;;;;;;;16.09;61.72;101038.34;6335665;22;20006;-92
2021/05/19 17:05:30;;;;;;;2.50;0.70;;;;;;;16.43;60.54;101051.50;6337149;22;20446;-92
2021/05/19 17:07:56;;;;;;;7.32;1.52;;;;;;;16.16;62.26;101039.53;6335795;22;20018;-93
2021/05/19 17:10:22;;;;;;;5.88;0.90;;;;;;;16.33;62.78;101032.88;6337258;22;20010;-91
2021/05/19 17:12:50;;;;;;;11.15;1.10;;;;;;;16.32;62.23;101038.28;6337380;22;20073;-92
2021/05/19 17:15:15;;;;;;;9.40;1.10;;;;;;;16.39;62.48;101050.06;6337523;22;19995;-92
2021/05/19 17:17:41;;;;;;;3.90;1.15;;;;;;;16.18;61.56;101044.72;6335717;22;20357;-92
2021/05/19 17:20:07;;;;;;;5.57;0.88;;;;;;;16.33;61.89;101050.56;6337137;22;20026;-93
2021/05/19 17:22:32;;;;;;;3.20;0.60;;;;;;;16.16;61.31;101050.16;6337297;22;20142;-92
2021/05/19 17:24:59;;;;;;;5.38;1.65;;;;;;;15.97;62.05;101055.25;6337243;22;19998;-92
2021/05/19 17:27:24;;;;;;;7.10;1.35;;;;;;;15.89;62.22;101047.91;6337003;22;19999;-92